Heather, Washington
Current Conditions -  °F | °C
As of 4:53 AM on Saturday 25 Oct 2014 (Local Time) from KHQM Reporting Station
Overcast Overcast  
Wind Chill: 51°   Ceiling: 5000
Heat Index: 51°   Visibility: 9mi
Dew Point: 49°   Wind: 13mph
Humidity: 92%   Direction: 70°ENE
Pressure: 29.46"   Gusts: NA
Location:  46.8576°N, 123.936°W
Report Text: KHQM 251153Z AUTO 07011KT 9SM BKN050 OVC100 11/09 A2946 RMK AO2 SLP979 60008 70047 T01060094 10111 20106 58047
Loading
Personal Weather Stations






























Interactive Weather Map
Tropical Storm Tracking
New forecast layout! Learn more

10-Day Weather Forecast

Advertisements
Track Severe Weather on mobile